Terminal Aerodrome Forecast
Issued by NWS Omaha/Valley, NE

Home | Current Version | Previous Version | Text Only | Print | Product List | Glossary Off
Versions: 1 2 3 4 5 6 7 8 9 10 11 12 13 14 15 16 17 18 19 20 21 22 23 24 25 26 27 28 29 30 31 32 33 34 35 36 37 38 39 40 41 42

000
FTUS43 KOAX 311120
TAFOFK
TAF
KOFK 311120Z 3112/0112 21009KT P6SM BKN250
      TEMPO 3121/3124 VRB25G45KT 2SM +TSRA BKN015CB
     FM010000 35006KT 4SM -TSRA BKN040CB
      TEMPO 0100/0104 VRB25G45KT 2SM +TSRA BKN015CB
     FM010400 32012KT P6SM BKN250=

USA.gov is the U.S. government's official web portal to all federal, state and local government web resources and services.